sensor_id;sensor_type;location;lat;lon;timestamp;temperature;humidity
7942;HTU21D;4016;50.758;7.150;2024-03-23T00:55:16;8.50;118.99
7942;HTU21D;4016;50.758;7.150;2024-03-23T01:00:16;8.73;118.99
7942;HTU21D;4016;50.758;7.150;2024-03-23T01:05:17;8.66;118.99
7942;HTU21D;4016;50.758;7.150;2024-03-23T01:10:17;8.59;118.99
7942;HTU21D;4016;50.758;7.150;2024-03-23T01:15:17;8.57;118.99
7942;HTU21D;4016;50.758;7.150;2024-03-23T01:20:18;8.45;118.99
7942;HTU21D;4016;50.758;7.150;2024-03-23T01:25:18;8.66;118.99
7942;HTU21D;4016;50.758;7.150;2024-03-23T01:30:18;8.51;118.99
7942;HTU21D;4016;50.758;7.150;2024-03-23T01:35:19;8.31;118.99
7942;HTU21D;4016;50.758;7.150;2024-03-23T01:40:19;8.41;118.99
7942;HTU21D;4016;50.758;7.150;2024-03-23T01:45:19;8.19;118.99
7942;HTU21D;4016;50.758;7.150;2024-03-23T01:50:20;8.28;118.99
7942;HTU21D;4016;50.758;7.150;2024-03-23T01:55:21;8.24;118.99
7942;HTU21D;4016;50.758;7.150;2024-03-23T02:00:21;8.17;118.99
7942;HTU21D;4016;50.758;7.150;2024-03-23T02:05:23;8.29;118.99
7942;HTU21D;4016;50.758;7.150;2024-03-23T02:10:24;8.03;118.99
7942;HTU21D;4016;50.758;7.150;2024-03-23T02:15:24;7.84;118.99
7942;HTU21D;4016;50.758;7.150;2024-03-23T02:20:24;7.68;118.99
7942;HTU21D;4016;50.758;7.150;2024-03-23T02:25:25;7.42;118.99
7942;HTU21D;4016;50.758;7.150;2024-03-23T02:30:26;7.34;118.99
7942;HTU21D;4016;50.758;7.150;2024-03-23T02:35:26;7.24;118.99
7942;HTU21D;4016;50.758;7.150;2024-03-23T02:40:27;7.34;118.99
7942;HTU21D;4016;50.758;7.150;2024-03-23T02:45:28;7.27;118.99
7942;HTU21D;4016;50.758;7.150;2024-03-23T02:50:28;7.22;118.99
7942;HTU21D;4016;50.758;7.150;2024-03-23T02:55:29;7.12;118.99
7942;HTU21D;4016;50.758;7.150;2024-03-23T03:00:29;7.03;118.99
7942;HTU21D;4016;50.758;7.150;2024-03-23T03:05:29;6.98;118.99
7942;HTU21D;4016;50.758;7.150;2024-03-23T03:10:30;7.04;118.99
7942;HTU21D;4016;50.758;7.150;2024-03-23T03:15:31;6.96;118.99
7942;HTU21D;4016;50.758;7.150;2024-03-23T03:20:31;6.81;118.99
7942;HTU21D;4016;50.758;7.150;2024-03-23T03:25:32;6.46;118.99
7942;HTU21D;4016;50.758;7.150;2024-03-23T03:30:32;6.29;118.99
7942;HTU21D;4016;50.758;7.150;2024-03-23T03:35:32;6.42;118.99
7942;HTU21D;4016;50.758;7.150;2024-03-23T03:40:33;6.39;118.99
7942;HTU21D;4016;50.758;7.150;2024-03-23T03:45:33;6.43;118.99
7942;HTU21D;4016;50.758;7.150;2024-03-23T03:50:34;6.37;118.99
7942;HTU21D;4016;50.758;7.150;2024-03-23T03:55:34;6.34;118.99
7942;HTU21D;4016;50.758;7.150;2024-03-23T04:00:35;6.21;118.99
7942;HTU21D;4016;50.758;7.150;2024-03-23T04:05:35;6.19;118.99
7942;HTU21D;4016;50.758;7.150;2024-03-23T04:10:36;6.25;118.99
7942;HTU21D;4016;50.758;7.150;2024-03-23T04:15:36;6.28;118.99
7942;HTU21D;4016;50.758;7.150;2024-03-23T04:20:37;6.46;118.99
7942;HTU21D;4016;50.758;7.150;2024-03-23T04:25:37;6.17;118.99
7942;HTU21D;4016;50.758;7.150;2024-03-23T04:30:37;6.19;118.99
7942;HTU21D;4016;50.758;7.150;2024-03-23T04:35:38;5.97;118.99
7942;HTU21D;4016;50.758;7.150;2024-03-23T04:40:38;5.90;118.99
7942;HTU21D;4016;50.758;7.150;2024-03-23T04:45:38;6.12;118.99
7942;HTU21D;4016;50.758;7.150;2024-03-23T04:50:39;6.01;118.99
7942;HTU21D;4016;50.758;7.150;2024-03-23T04:55:40;5.96;118.99
7942;HTU21D;4016;50.758;7.150;2024-03-23T05:00:41;5.97;118.99
7942;HTU21D;4016;50.758;7.150;2024-03-23T05:05:41;5.92;118.99
7942;HTU21D;4016;50.758;7.150;2024-03-23T05:10:42;5.97;118.99
7942;HTU21D;4016;50.758;7.150;2024-03-23T05:15:43;5.87;118.99
7942;HTU21D;4016;50.758;7.150;2024-03-23T05:20:43;6.05;118.99
7942;HTU21D;4016;50.758;7.150;2024-03-23T05:25:44;6.01;118.99
7942;HTU21D;4016;50.758;7.150;2024-03-23T05:30:50;5.95;118.99
7942;HTU21D;4016;50.758;7.150;2024-03-23T05:35:59;6.06;118.99
7942;HTU21D;4016;50.758;7.150;2024-03-23T05:41:00;5.87;118.99
7942;HTU21D;4016;50.758;7.150;2024-03-23T05:46:01;6.02;118.99
7942;HTU21D;4016;50.758;7.150;2024-03-23T05:51:19;5.85;118.99
7942;HTU21D;4016;50.758;7.150;2024-03-23T05:56:20;5.93;118.99
7942;HTU21D;4016;50.758;7.150;2024-03-23T06:01:20;5.85;118.99
7942;HTU21D;4016;50.758;7.150;2024-03-23T06:06:20;5.85;118.99
7942;HTU21D;4016;50.758;7.150;2024-03-23T06:11:21;5.99;118.99
7942;HTU21D;4016;50.758;7.150;2024-03-23T06:16:21;5.94;118.99
7942;HTU21D;4016;50.758;7.150;2024-03-23T06:21:24;5.95;118.99
7942;HTU21D;4016;50.758;7.150;2024-03-23T06:26:25;6.06;118.99
7942;HTU21D;4016;50.758;7.150;2024-03-23T06:31:25;6.11;118.99
7942;HTU21D;4016;50.758;7.150;2024-03-23T06:36:26;5.95;118.99
7942;HTU21D;4016;50.758;7.150;2024-03-23T06:41:26;5.98;118.99
7942;HTU21D;4016;50.758;7.150;2024-03-23T06:46:26;6.12;118.99
7942;HTU21D;4016;50.758;7.150;2024-03-23T06:51:27;6.09;118.99
7942;HTU21D;4016;50.758;7.150;2024-03-23T06:56:27;6.23;118.99
7942;HTU21D;4016;50.758;7.150;2024-03-23T07:01:28;6.16;118.99
7942;HTU21D;4016;50.758;7.150;2024-03-23T07:06:29;6.37;118.99
7942;HTU21D;4016;50.758;7.150;2024-03-23T07:11:30;6.39;118.99
7942;HTU21D;4016;50.758;7.150;2024-03-23T07:16:31;6.70;118.99
7942;HTU21D;4016;50.758;7.150;2024-03-23T07:21:31;6.72;118.99
7942;HTU21D;4016;50.758;7.150;2024-03-23T07:26:31;6.90;118.99
7942;HTU21D;4016;50.758;7.150;2024-03-23T07:31:32;7.00;118.99
7942;HTU21D;4016;50.758;7.150;2024-03-23T07:36:32;7.17;118.99
7942;HTU21D;4016;50.758;7.150;2024-03-23T07:41:33;7.54;118.99
7942;HTU21D;4016;50.758;7.150;2024-03-23T07:46:33;7.73;118.99
7942;HTU21D;4016;50.758;7.150;2024-03-23T07:51:33;7.78;118.99
7942;HTU21D;4016;50.758;7.150;2024-03-23T07:56:35;8.06;118.99
7942;HTU21D;4016;50.758;7.150;2024-03-23T08:01:35;8.51;118.99
7942;HTU21D;4016;50.758;7.150;2024-03-23T08:06:35;8.70;118.99
7942;HTU21D;4016;50.758;7.150;2024-03-23T08:11:36;9.00;118.99
7942;HTU21D;4016;50.758;7.150;2024-03-23T08:16:36;8.90;118.99
7942;HTU21D;4016;50.758;7.150;2024-03-23T08:21:36;8.38;118.99
7942;HTU21D;4016;50.758;7.150;2024-03-23T08:26:37;7.82;118.99
7942;HTU21D;4016;50.758;7.150;2024-03-23T08:31:37;8.01;118.99
7942;HTU21D;4016;50.758;7.150;2024-03-23T08:36:38;8.18;118.99
7942;HTU21D;4016;50.758;7.150;2024-03-23T08:41:38;8.23;118.99
7942;HTU21D;4016;50.758;7.150;2024-03-23T08:46:38;8.59;118.99
7942;HTU21D;4016;50.758;7.150;2024-03-23T08:51:39;8.81;118.99
7942;HTU21D;4016;50.758;7.150;2024-03-23T08:56:39;9.10;118.99
7942;HTU21D;4016;50.758;7.150;2024-03-23T09:01:39;9.37;118.99
7942;HTU21D;4016;50.758;7.150;2024-03-23T09:06:42;9.55;118.99
7942;HTU21D;4016;50.758;7.150;2024-03-23T09:11:43;9.75;118.99
7942;HTU21D;4016;50.758;7.150;2024-03-23T09:16:43;9.98;118.99
7942;HTU21D;4016;50.758;7.150;2024-03-23T09:21:43;9.80;118.99
7942;HTU21D;4016;50.758;7.150;2024-03-23T09:26:44;9.59;118.99
7942;HTU21D;4016;50.758;7.150;2024-03-23T09:31:44;9.63;118.99
7942;HTU21D;4016;50.758;7.150;2024-03-23T09:36:45;9.78;118.99
7942;HTU21D;4016;50.758;7.150;2024-03-23T09:41:45;9.79;118.99
7942;HTU21D;4016;50.758;7.150;2024-03-23T09:46:46;9.63;118.99
7942;HTU21D;4016;50.758;7.150;2024-03-23T09:51:46;9.77;118.99
7942;HTU21D;4016;50.758;7.150;2024-03-23T09:56:47;10.10;118.99
7942;HTU21D;4016;50.758;7.150;2024-03-23T10:01:47;10.31;118.99
7942;HTU21D;4016;50.758;7.150;2024-03-23T10:06:48;9.86;118.99
7942;HTU21D;4016;50.758;7.150;2024-03-23T10:11:48;9.85;118.99
7942;HTU21D;4016;50.758;7.150;2024-03-23T10:16:50;10.08;118.99
7942;HTU21D;4016;50.758;7.150;2024-03-23T10:21:52;10.46;118.99
7942;HTU21D;4016;50.758;7.150;2024-03-23T10:26:56;10.72;118.99
7942;HTU21D;4016;50.758;7.150;2024-03-23T10:32:10;9.90;118.99
7942;HTU21D;4016;50.758;7.150;2024-03-23T10:37:11;9.27;118.99
7942;HTU21D;4016;50.758;7.150;2024-03-23T10:42:12;8.37;118.99
7942;HTU21D;4016;50.758;7.150;2024-03-23T10:47:12;7.77;118.99
7942;HTU21D;4016;50.758;7.150;2024-03-23T10:52:13;7.44;118.99
7942;HTU21D;4016;50.758;7.150;2024-03-23T10:57:16;7.58;118.99
7942;HTU21D;4016;50.758;7.150;2024-03-23T11:02:21;7.59;118.99
7942;HTU21D;4016;50.758;7.150;2024-03-23T11:12:29;7.87;118.99
7942;HTU21D;4016;50.758;7.150;2024-03-23T11:17:32;8.44;118.99
7942;HTU21D;4016;50.758;7.150;2024-03-23T11:22:45;9.05;118.99
7942;HTU21D;4016;50.758;7.150;2024-03-23T11:27:52;9.27;118.99
7942;HTU21D;4016;50.758;7.150;2024-03-23T11:32:54;9.56;118.99
7942;HTU21D;4016;50.758;7.150;2024-03-23T11:38:20;9.74;117.89
7942;HTU21D;4016;50.758;7.150;2024-03-23T11:43:21;9.61;113.63
7942;HTU21D;4016;50.758;7.150;2024-03-23T11:48:23;9.14;108.36
7942;HTU21D;4016;50.758;7.150;2024-03-23T11:53:24;9.67;112.52
7942;HTU21D;4016;50.758;7.150;2024-03-23T11:58:27;9.57;108.59
7942;HTU21D;4016;50.758;7.150;2024-03-23T12:03:28;9.63;108.39
7942;HTU21D;4016;50.758;7.150;2024-03-23T12:08:33;9.60;114.17
7942;HTU21D;4016;50.758;7.150;2024-03-23T12:13:34;9.24;118.99
7942;HTU21D;4016;50.758;7.150;2024-03-23T12:18:34;9.57;117.24
7942;HTU21D;4016;50.758;7.150;2024-03-23T12:23:35;10.05;117.29
7942;HTU21D;4016;50.758;7.150;2024-03-23T12:28:35;10.37;114.26
7942;HTU21D;4016;50.758;7.150;2024-03-23T12:33:37;10.18;111.12
7942;HTU21D;4016;50.758;7.150;2024-03-23T12:38:37;10.10;109.75
7942;HTU21D;4016;50.758;7.150;2024-03-23T12:43:38;10.77;113.85
7942;HTU21D;4016;50.758;7.150;2024-03-23T12:48:38;11.03;104.10
7942;HTU21D;4016;50.758;7.150;2024-03-23T12:53:38;9.52;102.38
7942;HTU21D;4016;50.758;7.150;2024-03-23T12:58:39;8.56;111.32
7942;HTU21D;4016;50.758;7.150;2024-03-23T13:03:39;7.77;116.33
7942;HTU21D;4016;50.758;7.150;2024-03-23T13:08:41;8.28;115.10
7942;HTU21D;4016;50.758;7.150;2024-03-23T13:13:41;8.51;111.48
7942;HTU21D;4016;50.758;7.150;2024-03-23T13:18:44;8.48;112.45
7942;HTU21D;4016;50.758;7.150;2024-03-23T13:23:48;8.90;112.37
7942;HTU21D;4016;50.758;7.150;2024-03-23T13:28:50;9.23;106.00
7942;HTU21D;4016;50.758;7.150;2024-03-23T13:33:50;10.14;101.83
7942;HTU21D;4016;50.758;7.150;2024-03-23T13:38:50;10.69;103.03
7942;HTU21D;4016;50.758;7.150;2024-03-23T13:43:51;10.95;95.83
7942;HTU21D;4016;50.758;7.150;2024-03-23T13:48:51;11.33;94.58
7942;HTU21D;4016;50.758;7.150;2024-03-23T13:53:56;11.40;86.23
7942;HTU21D;4016;50.758;7.150;2024-03-23T13:58:56;11.60;86.78
7942;HTU21D;4016;50.758;7.150;2024-03-23T14:03:58;10.86;87.03
7942;HTU21D;4016;50.758;7.150;2024-03-23T14:08:58;10.57;94.07
7942;HTU21D;4016;50.758;7.150;2024-03-23T14:13:59;10.83;92.54
7942;HTU21D;4016;50.758;7.150;2024-03-23T14:18:59;10.89;89.12
7942;HTU21D;4016;50.758;7.150;2024-03-23T14:24:00;10.86;90.55
7942;HTU21D;4016;50.758;7.150;2024-03-23T14:29:01;10.09;93.69
7942;HTU21D;4016;50.758;7.150;2024-03-23T14:34:01;9.59;93.27
7942;HTU21D;4016;50.758;7.150;2024-03-23T14:39:01;9.11;94.93
7942;HTU21D;4016;50.758;7.150;2024-03-23T14:44:02;8.60;107.44
7942;HTU21D;4016;50.758;7.150;2024-03-23T14:49:02;8.32;116.25
7942;HTU21D;4016;50.758;7.150;2024-03-23T14:54:02;7.65;115.45
7942;HTU21D;4016;50.758;7.150;2024-03-23T14:59:03;7.47;108.09
7942;HTU21D;4016;50.758;7.150;2024-03-23T15:04:03;7.57;109.86
7942;HTU21D;4016;50.758;7.150;2024-03-23T15:09:04;7.87;114.19
7942;HTU21D;4016;50.758;7.150;2024-03-23T15:14:09;7.93;110.40
7942;HTU21D;4016;50.758;7.150;2024-03-23T15:19:10;7.83;117.10
7942;HTU21D;4016;50.758;7.150;2024-03-23T15:24:11;8.09;116.66
7942;HTU21D;4016;50.758;7.150;2024-03-23T15:29:11;7.97;117.92
7942;HTU21D;4016;50.758;7.150;2024-03-23T15:34:15;7.90;115.78
7942;HTU21D;4016;50.758;7.150;2024-03-23T15:39:16;7.44;118.63
7942;HTU21D;4016;50.758;7.150;2024-03-23T15:44:17;7.33;118.99
7942;HTU21D;4016;50.758;7.150;2024-03-23T15:49:17;7.30;118.99
7942;HTU21D;4016;50.758;7.150;2024-03-23T15:54:18;7.17;118.99
7942;HTU21D;4016;50.758;7.150;2024-03-23T15:59:18;7.20;118.99
7942;HTU21D;4016;50.758;7.150;2024-03-23T16:04:18;7.29;118.99
7942;HTU21D;4016;50.758;7.150;2024-03-23T16:09:19;7.26;118.99
7942;HTU21D;4016;50.758;7.150;2024-03-23T16:14:19;7.26;118.99
7942;HTU21D;4016;50.758;7.150;2024-03-23T16:19:20;7.27;118.99
7942;HTU21D;4016;50.758;7.150;2024-03-23T16:24:22;7.10;118.99
7942;HTU21D;4016;50.758;7.150;2024-03-23T16:29:22;7.10;118.99
7942;HTU21D;4016;50.758;7.150;2024-03-23T16:34:23;7.08;118.99
7942;HTU21D;4016;50.758;7.150;2024-03-23T16:39:23;7.00;118.99
7942;HTU21D;4016;50.758;7.150;2024-03-23T16:44:23;6.61;118.99
7942;HTU21D;4016;50.758;7.150;2024-03-23T16:49:24;6.35;118.99
7942;HTU21D;4016;50.758;7.150;2024-03-23T16:54:25;6.28;118.99
7942;HTU21D;4016;50.758;7.150;2024-03-23T16:59:27;6.22;118.99
7942;HTU21D;4016;50.758;7.150;2024-03-23T17:04:28;6.35;118.99
7942;HTU21D;4016;50.758;7.150;2024-03-23T17:09:29;6.29;118.99
7942;HTU21D;4016;50.758;7.150;2024-03-23T17:14:31;6.25;118.99
7942;HTU21D;4016;50.758;7.150;2024-03-23T17:19:31;6.29;118.99
7942;HTU21D;4016;50.758;7.150;2024-03-23T17:24:31;6.10;118.99
7942;HTU21D;4016;50.758;7.150;2024-03-23T17:29:32;6.12;118.99
7942;HTU21D;4016;50.758;7.150;2024-03-23T17:34:32;6.05;118.99
7942;HTU21D;4016;50.758;7.150;2024-03-23T17:39:33;5.98;118.99
7942;HTU21D;4016;50.758;7.150;2024-03-23T17:44:33;5.86;118.99
7942;HTU21D;4016;50.758;7.150;2024-03-23T17:49:34;5.74;118.99
7942;HTU21D;4016;50.758;7.150;2024-03-23T17:54:34;5.62;118.99
7942;HTU21D;4016;50.758;7.150;2024-03-23T17:59:34;5.51;118.99
7942;HTU21D;4016;50.758;7.150;2024-03-23T18:04:35;5.48;118.99
7942;HTU21D;4016;50.758;7.150;2024-03-23T18:09:35;5.37;118.99
7942;HTU21D;4016;50.758;7.150;2024-03-23T18:14:35;5.19;118.99
7942;HTU21D;4016;50.758;7.150;2024-03-23T18:19:36;5.16;118.99
7942;HTU21D;4016;50.758;7.150;2024-03-23T18:24:36;5.13;118.99
7942;HTU21D;4016;50.758;7.150;2024-03-23T18:29:37;5.13;118.99
7942;HTU21D;4016;50.758;7.150;2024-03-23T18:34:37;5.07;118.99
7942;HTU21D;4016;50.758;7.150;2024-03-23T18:39:39;5.06;118.99
7942;HTU21D;4016;50.758;7.150;2024-03-23T18:44:41;5.03;118.99
7942;HTU21D;4016;50.758;7.150;2024-03-23T18:49:41;5.02;118.99
7942;HTU21D;4016;50.758;7.150;2024-03-23T18:54:42;5.11;118.99
7942;HTU21D;4016;50.758;7.150;2024-03-23T18:59:42;5.10;118.99
7942;HTU21D;4016;50.758;7.150;2024-03-23T19:04:42;5.12;118.99
7942;HTU21D;4016;50.758;7.150;2024-03-23T19:09:43;5.04;118.99
7942;HTU21D;4016;50.758;7.150;2024-03-23T19:14:43;4.96;118.99
7942;HTU21D;4016;50.758;7.150;2024-03-23T19:19:43;4.94;118.99
7942;HTU21D;4016;50.758;7.150;2024-03-23T19:24:44;4.77;118.99
7942;HTU21D;4016;50.758;7.150;2024-03-23T19:29:44;4.73;118.99
7942;HTU21D;4016;50.758;7.150;2024-03-23T19:34:44;4.61;118.99
7942;HTU21D;4016;50.758;7.150;2024-03-23T19:39:45;4.51;118.99
7942;HTU21D;4016;50.758;7.150;2024-03-23T19:44:46;4.41;118.99
7942;HTU21D;4016;50.758;7.150;2024-03-23T19:49:47;4.43;118.99
7942;HTU21D;4016;50.758;7.150;2024-03-23T19:54:48;4.31;118.99
7942;HTU21D;4016;50.758;7.150;2024-03-23T19:59:48;4.19;118.99
7942;HTU21D;4016;50.758;7.150;2024-03-23T20:04:49;4.15;118.99
7942;HTU21D;4016;50.758;7.150;2024-03-23T20:09:49;4.14;118.99
7942;HTU21D;4016;50.758;7.150;2024-03-23T20:14:50;4.16;118.99
7942;HTU21D;4016;50.758;7.150;2024-03-23T20:19:50;4.20;118.99
7942;HTU21D;4016;50.758;7.150;2024-03-23T20:24:51;4.26;118.99
7942;HTU21D;4016;50.758;7.150;2024-03-23T20:29:53;4.31;118.99
7942;HTU21D;4016;50.758;7.150;2024-03-23T20:34:54;4.45;118.99
7942;HTU21D;4016;50.758;7.150;2024-03-23T20:39:54;4.50;118.99
7942;HTU21D;4016;50.758;7.150;2024-03-23T20:44:54;4.58;118.99
7942;HTU21D;4016;50.758;7.150;2024-03-23T20:49:58;4.57;118.99
7942;HTU21D;4016;50.758;7.150;2024-03-23T20:54:58;4.58;118.99
7942;HTU21D;4016;50.758;7.150;2024-03-23T20:59:58;4.68;118.99
7942;HTU21D;4016;50.758;7.150;2024-03-23T21:04:59;4.76;118.99
7942;HTU21D;4016;50.758;7.150;2024-03-23T21:09:59;4.65;118.99
7942;HTU21D;4016;50.758;7.150;2024-03-23T21:15:00;4.75;118.99
7942;HTU21D;4016;50.758;7.150;2024-03-23T21:20:00;4.89;118.99
7942;HTU21D;4016;50.758;7.150;2024-03-23T21:25:01;4.89;118.99
7942;HTU21D;4016;50.758;7.150;2024-03-23T21:30:01;5.03;118.99
7942;HTU21D;4016;50.758;7.150;2024-03-23T21:35:02;5.07;118.99
7942;HTU21D;4016;50.758;7.150;2024-03-23T21:40:02;5.03;118.99
7942;HTU21D;4016;50.758;7.150;2024-03-23T21:45:03;5.02;118.99
7942;HTU21D;4016;50.758;7.150;2024-03-23T21:50:05;5.05;118.99
7942;HTU21D;4016;50.758;7.150;2024-03-23T21:55:06;5.03;118.99
7942;HTU21D;4016;50.758;7.150;2024-03-23T22:00:07;5.10;118.99
7942;HTU21D;4016;50.758;7.150;2024-03-23T22:05:08;5.19;118.99
7942;HTU21D;4016;50.758;7.150;2024-03-23T22:10:10;5.53;118.99
7942;HTU21D;4016;50.758;7.150;2024-03-23T22:15:10;5.47;118.99
7942;HTU21D;4016;50.758;7.150;2024-03-23T22:20:11;5.34;118.99
7942;HTU21D;4016;50.758;7.150;2024-03-23T22:25:11;5.21;118.99
7942;HTU21D;4016;50.758;7.150;2024-03-23T22:30:12;5.17;118.99
7942;HTU21D;4016;50.758;7.150;2024-03-23T22:35:13;5.13;118.99
7942;HTU21D;4016;50.758;7.150;2024-03-23T22:40:13;5.12;118.99
7942;HTU21D;4016;50.758;7.150;2024-03-23T22:45:14;5.11;118.99
7942;HTU21D;4016;50.758;7.150;2024-03-23T22:50:14;5.24;118.99
7942;HTU21D;4016;50.758;7.150;2024-03-23T22:55:15;5.21;118.99
7942;HTU21D;4016;50.758;7.150;2024-03-23T23:00:15;5.17;118.99
7942;HTU21D;4016;50.758;7.150;2024-03-23T23:05:18;5.32;118.99
7942;HTU21D;4016;50.758;7.150;2024-03-23T23:10:18;5.21;118.99
7942;HTU21D;4016;50.758;7.150;2024-03-23T23:15:19;5.20;118.99
7942;HTU21D;4016;50.758;7.150;2024-03-23T23:20:20;5.15;118.99
7942;HTU21D;4016;50.758;7.150;2024-03-23T23:25:20;5.16;118.99
7942;HTU21D;4016;50.758;7.150;2024-03-23T23:30:21;5.17;118.99
7942;HTU21D;4016;50.758;7.150;2024-03-23T23:35:21;5.13;118.99
7942;HTU21D;4016;50.758;7.150;2024-03-23T23:40:21;5.19;118.99
7942;HTU21D;4016;50.758;7.150;2024-03-23T23:45:22;5.10;118.99
7942;HTU21D;4016;50.758;7.150;2024-03-23T23:50:22;5.02;118.99
7942;HTU21D;4016;50.758;7.150;2024-03-23T23:55:22;5.00;118.99
